Cassel, California
Current Conditions -  °F | °C
As of 10:56 PM on Tuesday 21 Oct 2014 (Local Time) from KMHS Reporting Station
Broken Clouds Broken Clouds  
Wind Chill: 42°   Ceiling: 11000
Heat Index: 42°   Visibility: 9mi
Dew Point: 38°   Wind: 0mph
Humidity: 85%   Direction: NA
Pressure: 30.07"   Gusts: NA
Location:  40.92°N, 121.55°W
Report Text: KMHS 220556Z AUTO 00000KT 9SM BKN110 06/03 A3007 RMK AO2 SLP201 T00560033 10122 20050 53003
Loading
Personal Weather Stations






























Interactive Weather Map
Tropical Storm Tracking
New forecast layout! Learn more

10-Day Weather Forecast

Advertisements
Track Severe Weather on mobile